My/aldabra — FFZV — position and weather

sailwx.info

Track history (hours):
 
Tides and Currents Weather Stations Pressure Air Temp Water Temp Dewpoint Dewpoint Depression Visibility Wind Speed Wind Dir Waves Ship Positions

My/aldabra

Last reported at 2015-Jul-07 06:33 UTC. Time now 2015-Jul-07 06:49 UTC.
Position N 37°38' E 023°24'.

Length 24 m.

Type: Ship. MMSI: 228004800.

Date/timePositionNaut miles runAvg speedWind from/ knotsBaromVisibWave heightAir tempDewpointWater temp
2015-Jul-07 06:33N 37°38' E 023°24'8 2.7
2015-Jul-07 03:29N 37°30' E 023°27'0 0.0
2015-Jul-07 02:28N 37°30' E 023°27'0 0.0
2015-Jul-07 00:32N 37°30' E 023°27'0 0.0
2015-Jul-06 21:30N 37°30' E 023°27'0 0.0
2015-Jul-06 20:33N 37°30' E 023°27'0 0.0
2015-Jul-06 19:22N 37°30' E 023°27'0 0.0
2015-Jul-06 18:18N 37°30' E 023°27'0 0.0
2015-Jul-06 15:21N 37°30' E 023°27'0 0.0
2015-Jul-06 13:13N 37°30' E 023°27'0 0.0
2015-Jul-06 08:32N 37°30' E 023°27'0 0.0
2015-Jul-06 04:13N 37°30' E 023°27'0 0.0
2015-Jul-06 03:30N 37°30' E 023°27'0 0.0
2015-Jul-05 23:22N 37°30' E 023°27'0 0.0
2015-Jul-05 21:21N 37°30' E 023°27'0 0.0
2015-Jul-05 20:31N 37°30' E 023°27'0 0.0
2015-Jul-05 19:30N 37°30' E 023°27'0 0.0
2015-Jul-05 18:33N 37°30' E 023°27'0 0.0
2015-Jul-05 14:12N 37°30' E 023°27'2 1.6
2015-Jul-05 13:12N 37°30' E 023°29'2 0.4
2015-Jul-05 09:21N 37°29' E 023°30'  
2015-Jun-30 05:32N 37°30' E 023°27'0 0.3
2015-Jun-30 04:14N 37°30' E 023°27'0 0.0
2015-Jun-30 03:29N 37°30' E 023°27'0 0.0
2015-Jun-30 02:10N 37°30' E 023°27'0 0.0
2015-Jun-30 01:31N 37°30' E 023°27'0 0.0
2015-Jun-30 00:09N 37°30' E 023°27'0 0.0
2015-Jun-29 23:12N 37°30' E 023°27'0 0.0
2015-Jun-29 22:34N 37°30' E 023°27'0 0.0
2015-Jun-29 21:17N 37°30' E 023°27'0 0.0
2015-Jun-29 20:33N 37°30' E 023°27'0 0.0
2015-Jun-29 17:23N 37°30' E 023°27'0 0.0
2015-Jun-29 16:32N 37°30' E 023°27'0 0.0
2015-Jun-29 15:33N 37°30' E 023°27'0 0.0
2015-Jun-29 14:31N 37°30' E 023°27'0 0.0
2015-Jun-29 13:23N 37°30' E 023°27'0 0.0
2015-Jun-29 12:26N 37°30' E 023°27'0 0.0
2015-Jun-29 11:05N 37°30' E 023°27'0 0.0
2015-Jun-29 10:33N 37°30' E 023°27'0 0.0
2015-Jun-29 08:26N 37°30' E 023°27'0 0.0
2015-Jun-29 07:30N 37°30' E 023°27'0 0.0
2015-Jun-29 06:33N 37°30' E 023°27'0 0.0
2015-Jun-29 05:14N 37°30' E 023°27'0 0.0
2015-Jun-29 04:31N 37°30' E 023°27'0 0.0
2015-Jun-29 03:32N 37°30' E 023°27'0 0.0
2015-Jun-29 02:32N 37°30' E 023°27'0 0.0
2015-Jun-29 01:09N 37°30' E 023°27'0 0.0
2015-Jun-29 00:07N 37°30' E 023°27'0 0.0
2015-Jun-28 23:18N 37°30' E 023°27'0 0.0
2015-Jun-28 21:33N 37°30' E 023°27'0 0.0
2015-Jun-28 19:29N 37°30' E 023°27'0 0.0
2015-Jun-28 15:16N 37°30' E 023°27'0 0.4
2015-Jun-28 14:33N 37°30' E 023°27'7 7.3
2015-Jun-28 13:33N 37°37' E 023°30'10 9.9
2015-Jun-28 12:34N 37°46' E 023°35'1010.3
2015-Jun-28 11:33N 37°56' E 023°39'0 0.5
2015-Jun-28 10:33N 37°56' E 023°39'0 0.0
2015-Jun-28 09:33N 37°56' E 023°39'0 0.0
2015-Jun-28 08:33N 37°56' E 023°39'0 0.0
2015-Jun-28 07:34N 37°56' E 023°39'0 0.0
2015-Jun-28 06:34N 37°56' E 023°39'0 0.0
2015-Jun-28 05:34N 37°56' E 023°39'0 0.0
2015-Jun-28 04:34N 37°56' E 023°39'0 0.0
2015-Jun-28 03:34N 37°56' E 023°39'0 0.0
2015-Jun-28 02:34N 37°56' E 023°39'0 0.0
2015-Jun-28 01:34N 37°56' E 023°39'0 0.0
2015-Jun-28 00:34N 37°56' E 023°39'0 0.0
2015-Jun-27 23:34N 37°56' E 023°39'0 0.0
2015-Jun-27 22:34N 37°56' E 023°39'0 0.0
2015-Jun-27 21:34N 37°56' E 023°39'0 0.0
2015-Jun-27 20:33N 37°56' E 023°39'0 0.0
2015-Jun-27 19:33N 37°56' E 023°39'0 0.0
2015-Jun-27 18:33N 37°56' E 023°39'0 0.0
2015-Jun-27 17:34N 37°56' E 023°39'0 0.0
2015-Jun-27 16:34N 37°56' E 023°39'0 0.0
2015-Jun-27 15:34N 37°56' E 023°39'0 0.0
2015-Jun-27 14:34N 37°56' E 023°39'0 0.0
2015-Jun-27 13:34N 37°56' E 023°39'0 0.0
2015-Jun-27 12:34N 37°56' E 023°39'0 0.0
2015-Jun-27 11:33N 37°56' E 023°39'0 0.0
2015-Jun-27 10:34N 37°56' E 023°39'0 0.0
2015-Jun-27 09:34N 37°56' E 023°39'0 0.0
2015-Jun-27 08:34N 37°56' E 023°39'0 0.0
2015-Jun-27 07:34N 37°56' E 023°39'0 0.0
2015-Jun-27 06:34N 37°56' E 023°39'  
Track history (hours):
 
Tides and Currents Weather Stations Pressure Air Temp Water Temp Dewpoint Dewpoint Depression Visibility Wind Speed Wind Dir Waves Ship Positions

My/aldabra

Last reported at 2015-Jul-07 06:33 UTC. Time now 2015-Jul-07 06:49 UTC.
Position N 37°38' E 023°24'.

Length 24 m.

Type: Ship. MMSI: 228004800.

Date/timePositionNaut miles runAvg speedWind from/ knotsBaromVisibWave heightAir tempDewpointWater temp
2015-Jul-07 06:33N 37°38' E 023°24'8 2.7
2015-Jul-07 03:29N 37°30' E 023°27'0 0.0
2015-Jul-07 02:28N 37°30' E 023°27'0 0.0
2015-Jul-07 00:32N 37°30' E 023°27'0 0.0
2015-Jul-06 21:30N 37°30' E 023°27'0 0.0
2015-Jul-06 20:33N 37°30' E 023°27'0 0.0
2015-Jul-06 19:22N 37°30' E 023°27'0 0.0
2015-Jul-06 18:18N 37°30' E 023°27'0 0.0
2015-Jul-06 15:21N 37°30' E 023°27'0 0.0
2015-Jul-06 13:13N 37°30' E 023°27'0 0.0
2015-Jul-06 08:32N 37°30' E 023°27'0 0.0
2015-Jul-06 04:13N 37°30' E 023°27'0 0.0
2015-Jul-06 03:30N 37°30' E 023°27'0 0.0
2015-Jul-05 23:22N 37°30' E 023°27'0 0.0
2015-Jul-05 21:21N 37°30' E 023°27'0 0.0
2015-Jul-05 20:31N 37°30' E 023°27'0 0.0
2015-Jul-05 19:30N 37°30' E 023°27'0 0.0
2015-Jul-05 18:33N 37°30' E 023°27'0 0.0
2015-Jul-05 14:12N 37°30' E 023°27'2 1.6
2015-Jul-05 13:12N 37°30' E 023°29'2 0.4
2015-Jul-05 09:21N 37°29' E 023°30'  
2015-Jun-30 05:32N 37°30' E 023°27'0 0.3
2015-Jun-30 04:14N 37°30' E 023°27'0 0.0
2015-Jun-30 03:29N 37°30' E 023°27'0 0.0
2015-Jun-30 02:10N 37°30' E 023°27'0 0.0
2015-Jun-30 01:31N 37°30' E 023°27'0 0.0
2015-Jun-30 00:09N 37°30' E 023°27'0 0.0
2015-Jun-29 23:12N 37°30' E 023°27'0 0.0
2015-Jun-29 22:34N 37°30' E 023°27'0 0.0
2015-Jun-29 21:17N 37°30' E 023°27'0 0.0
2015-Jun-29 20:33N 37°30' E 023°27'0 0.0
2015-Jun-29 17:23N 37°30' E 023°27'0 0.0
2015-Jun-29 16:32N 37°30' E 023°27'0 0.0
2015-Jun-29 15:33N 37°30' E 023°27'0 0.0
2015-Jun-29 14:31N 37°30' E 023°27'0 0.0
2015-Jun-29 13:23N 37°30' E 023°27'0 0.0
2015-Jun-29 12:26N 37°30' E 023°27'0 0.0
2015-Jun-29 11:05N 37°30' E 023°27'0 0.0
2015-Jun-29 10:33N 37°30' E 023°27'0 0.0
2015-Jun-29 08:26N 37°30' E 023°27'0 0.0
2015-Jun-29 07:30N 37°30' E 023°27'0 0.0
2015-Jun-29 06:33N 37°30' E 023°27'0 0.0
2015-Jun-29 05:14N 37°30' E 023°27'0 0.0
2015-Jun-29 04:31N 37°30' E 023°27'0 0.0
2015-Jun-29 03:32N 37°30' E 023°27'0 0.0
2015-Jun-29 02:32N 37°30' E 023°27'0 0.0
2015-Jun-29 01:09N 37°30' E 023°27'0 0.0
2015-Jun-29 00:07N 37°30' E 023°27'0 0.0
2015-Jun-28 23:18N 37°30' E 023°27'0 0.0
2015-Jun-28 21:33N 37°30' E 023°27'0 0.0
2015-Jun-28 19:29N 37°30' E 023°27'0 0.0
2015-Jun-28 15:16N 37°30' E 023°27'0 0.4
2015-Jun-28 14:33N 37°30' E 023°27'7 7.3
2015-Jun-28 13:33N 37°37' E 023°30'10 9.9
2015-Jun-28 12:34N 37°46' E 023°35'1010.3
2015-Jun-28 11:33N 37°56' E 023°39'0 0.5
2015-Jun-28 10:33N 37°56' E 023°39'0 0.0
2015-Jun-28 09:33N 37°56' E 023°39'0 0.0
2015-Jun-28 08:33N 37°56' E 023°39'0 0.0
2015-Jun-28 07:34N 37°56' E 023°39'0 0.0
2015-Jun-28 06:34N 37°56' E 023°39'0 0.0
2015-Jun-28 05:34N 37°56' E 023°39'0 0.0
2015-Jun-28 04:34N 37°56' E 023°39'0 0.0
2015-Jun-28 03:34N 37°56' E 023°39'0 0.0
2015-Jun-28 02:34N 37°56' E 023°39'0 0.0
2015-Jun-28 01:34N 37°56' E 023°39'0 0.0
2015-Jun-28 00:34N 37°56' E 023°39'0 0.0
2015-Jun-27 23:34N 37°56' E 023°39'0 0.0
2015-Jun-27 22:34N 37°56' E 023°39'0 0.0
2015-Jun-27 21:34N 37°56' E 023°39'0 0.0
2015-Jun-27 20:33N 37°56' E 023°39'0 0.0
2015-Jun-27 19:33N 37°56' E 023°39'0 0.0
2015-Jun-27 18:33N 37°56' E 023°39'0 0.0
2015-Jun-27 17:34N 37°56' E 023°39'0 0.0
2015-Jun-27 16:34N 37°56' E 023°39'0 0.0
2015-Jun-27 15:34N 37°56' E 023°39'0 0.0
2015-Jun-27 14:34N 37°56' E 023°39'0 0.0
2015-Jun-27 13:34N 37°56' E 023°39'0 0.0
2015-Jun-27 12:34N 37°56' E 023°39'0 0.0
2015-Jun-27 11:33N 37°56' E 023°39'0 0.0
2015-Jun-27 10:34N 37°56' E 023°39'0 0.0
2015-Jun-27 09:34N 37°56' E 023°39'0 0.0
2015-Jun-27 08:34N 37°56' E 023°39'0 0.0
2015-Jun-27 07:34N 37°56' E 023°39'0 0.0
2015-Jun-27 06:34N 37°56' E 023°39'  

Dump ship's entire track history